createdAt,value
2022-08-28T00:00:30.174Z,22.90
2022-08-28T00:02:59.082Z,19.42
2022-08-28T00:05:30.514Z,12.93
2022-08-28T00:07:59.744Z,16.88
2022-08-28T00:10:28.863Z,19.15
2022-08-28T00:12:58.258Z,19.27
2022-08-28T00:15:31.620Z,15.15
2022-08-28T00:18:00.809Z,20.95
2022-08-28T00:20:29.490Z,12.98
2022-08-28T00:22:58.045Z,13.50
2022-08-28T00:25:28.101Z,19.67
2022-08-28T00:27:57.752Z,15.73
2022-08-28T00:30:30.352Z,18.08
2022-08-28T00:33:02.445Z,16.95
2022-08-28T00:35:30.805Z,19.88
2022-08-28T00:37:59.426Z,19.98
2022-08-28T00:40:32.867Z,18.27
2022-08-28T00:43:03.224Z,16.50
2022-08-28T00:45:38.763Z,17.63
2022-08-28T00:48:09.474Z,21.70
2022-08-28T00:50:52.256Z,20.88
2022-08-28T00:53:23.489Z,23.58
2022-08-28T00:55:55.190Z,16.52
2022-08-28T00:58:23.351Z,20.45
2022-08-28T01:00:51.656Z,22.00
2022-08-28T01:03:21.682Z,27.80
2022-08-28T01:05:53.574Z,16.70
2022-08-28T01:08:21.706Z,28.67
2022-08-28T01:10:55.453Z,26.98
2022-08-28T01:13:26.853Z,22.80
2022-08-28T01:15:56.254Z,22.55
2022-08-28T01:18:27.752Z,21.38
2022-08-28T01:21:02.569Z,18.67
2022-08-28T01:23:46.203Z,20.58
2022-08-28T01:26:14.433Z,23.27
2022-08-28T01:28:42.536Z,28.08
2022-08-28T01:31:11.788Z,26.42
2022-08-28T01:33:42.531Z,23.27
2022-08-28T01:36:12.429Z,27.17
2022-08-28T01:38:43.574Z,21.02
2022-08-28T01:41:14.023Z,22.63
2022-08-28T01:43:43.955Z,25.15
2022-08-28T01:46:13.120Z,22.38
2022-08-28T01:48:44.213Z,24.20
2022-08-28T01:51:13.307Z,18.40
2022-08-28T01:53:45.132Z,24.23
2022-08-28T01:56:16.708Z,22.92
2022-08-28T01:58:44.971Z,24.80
2022-08-28T02:01:14.964Z,21.90
2022-08-28T02:03:43.813Z,22.90
2022-08-28T02:06:12.559Z,22.58
2022-08-28T02:08:42.177Z,20.77
2022-08-28T02:12:02.752Z,21.30
2022-08-28T02:14:31.440Z,24.35
2022-08-28T02:16:59.750Z,24.85
2022-08-28T02:19:27.909Z,27.17
2022-08-28T02:21:55.941Z,19.15
2022-08-28T02:24:25.442Z,21.02
2022-08-28T02:26:53.467Z,22.77
2022-08-28T02:29:48.777Z,19.60
2022-08-28T02:32:17.335Z,26.13
2022-08-28T02:34:45.717Z,21.73
2022-08-28T02:37:15.132Z,25.67
2022-08-28T02:39:44.858Z,22.00
2022-08-28T02:42:12.989Z,19.58
2022-08-28T02:44:43.354Z,23.38
2022-08-28T02:47:11.460Z,19.08
2022-08-28T02:49:39.433Z,20.77
2022-08-28T02:52:07.822Z,23.17
2022-08-28T02:54:37.477Z,22.05
2022-08-28T02:57:08.220Z,21.17
2022-08-28T02:59:36.445Z,20.02
2022-08-28T03:02:07.246Z,19.23
2022-08-28T03:05:20.935Z,18.55
2022-08-28T03:07:49.555Z,21.77
2022-08-28T03:10:18.436Z,18.20
2022-08-28T03:12:48.235Z,19.20
2022-08-28T03:15:18.048Z,25.98
2022-08-28T03:17:46.198Z,20.13
2022-08-28T03:20:16.751Z,24.92
2022-08-28T03:23:02.192Z,25.60
2022-08-28T03:25:30.430Z,20.42
2022-08-28T03:27:59.870Z,21.63
2022-08-28T03:30:28.098Z,21.20
2022-08-28T03:32:56.164Z,20.25
2022-08-28T03:35:24.269Z,22.17
2022-08-28T03:37:52.310Z,27.95
2022-08-28T03:40:21.501Z,22.40
2022-08-28T03:42:53.226Z,21.50
2022-08-28T03:45:23.298Z,19.83
2022-08-28T03:47:51.607Z,18.58
2022-08-28T03:50:19.946Z,17.77
2022-08-28T03:52:48.003Z,23.63
2022-08-28T03:55:18.878Z,19.77
2022-08-28T03:57:46.968Z,22.42
2022-08-28T04:00:34.798Z,25.88
2022-08-28T04:03:03.045Z,17.65
2022-08-28T04:05:31.205Z,18.42
2022-08-28T04:07:59.332Z,25.40
2022-08-28T04:10:27.348Z,21.95
2022-08-28T04:12:55.644Z,20.35
2022-08-28T04:15:23.688Z,17.98
2022-08-28T04:17:53.220Z,20.58
2022-08-28T04:20:21.712Z,20.38
2022-08-28T04:22:50.082Z,27.90
2022-08-28T04:25:24.128Z,23.00
2022-08-28T04:27:53.475Z,23.83
2022-08-28T04:30:21.694Z,25.63
2022-08-28T04:32:49.720Z,24.70
2022-08-28T04:35:41.977Z,18.48
2022-08-28T04:38:13.254Z,19.45
2022-08-28T04:40:42.115Z,23.80
2022-08-28T04:43:11.050Z,22.15
2022-08-28T04:45:40.779Z,15.93
2022-08-28T04:48:10.504Z,24.02
2022-08-28T04:50:43.664Z,23.23
2022-08-28T04:53:12.830Z,17.15
2022-08-28T04:58:49.711Z,17.05
2022-08-28T05:01:20.015Z,17.77
2022-08-28T05:03:49.436Z,18.15
2022-08-28T05:06:18.858Z,20.52
2022-08-28T05:08:46.946Z,18.42
2022-08-28T05:11:32.835Z,23.67
2022-08-28T05:14:15.955Z,18.02
2022-08-28T05:16:47.681Z,19.40
2022-08-28T05:19:16.664Z,13.43
2022-08-28T05:21:46.155Z,15.75
2022-08-28T05:24:14.398Z,16.02
2022-08-28T05:26:42.907Z,14.25
2022-08-28T05:29:12.006Z,18.20
2022-08-28T05:31:44.496Z,21.88
2022-08-28T05:34:15.510Z,24.25
2022-08-28T05:36:44.963Z,18.15
2022-08-28T05:39:14.615Z,14.70
2022-08-28T05:41:45.470Z,17.48
2022-08-28T05:44:17.484Z,20.13
2022-08-28T05:46:48.700Z,19.60
2022-08-28T05:49:18.296Z,21.20
2022-08-28T05:51:47.932Z,20.65
2022-08-28T05:54:17.018Z,23.65
2022-08-28T05:56:46.524Z,18.80
2022-08-28T05:59:16.176Z,16.73
2022-08-28T06:01:46.465Z,15.55
2022-08-28T06:04:18.663Z,17.75
2022-08-28T06:06:49.449Z,16.70
2022-08-28T06:09:19.522Z,18.88
2022-08-28T06:11:48.902Z,14.75
2022-08-28T06:14:20.811Z,20.88
2022-08-28T06:16:50.643Z,20.52
2022-08-28T06:19:19.679Z,18.05
2022-08-28T06:21:51.529Z,16.60
2022-08-28T06:24:20.070Z,19.98
2022-08-28T06:26:48.140Z,22.00
2022-08-28T06:29:21.125Z,14.70
2022-08-28T06:31:55.251Z,18.52
2022-08-28T06:34:23.683Z,30.77
2022-08-28T06:36:54.349Z,17.65
2022-08-28T06:39:23.665Z,15.90
2022-08-28T06:41:51.799Z,19.63
2022-08-28T06:44:21.873Z,16.88
2022-08-28T06:46:51.223Z,17.58
2022-08-28T06:49:20.115Z,18.38
2022-08-28T06:51:48.609Z,17.92
2022-08-28T06:54:23.011Z,14.88
2022-08-28T06:56:52.037Z,23.30
2022-08-28T06:59:20.177Z,17.88
2022-08-28T07:01:48.400Z,16.52
2022-08-28T07:04:16.554Z,18.23
2022-08-28T07:06:47.108Z,24.65
2022-08-28T07:09:18.046Z,19.27
2022-08-28T07:11:47.385Z,20.05
2022-08-28T07:14:15.815Z,16.92
2022-08-28T07:16:44.647Z,21.95
2022-08-28T07:19:14.014Z,22.85
2022-08-28T07:21:44.458Z,19.05
2022-08-28T07:24:14.752Z,17.75
2022-08-28T07:26:44.931Z,17.52
2022-08-28T07:29:14.458Z,15.98
2022-08-28T07:31:45.418Z,18.60
2022-08-28T07:34:14.863Z,20.10
2022-08-28T07:36:43.681Z,22.80
2022-08-28T07:39:13.305Z,20.20
2022-08-28T07:41:43.637Z,27.42
2022-08-28T07:44:31.425Z,13.88
2022-08-28T07:47:02.257Z,25.50
2022-08-28T07:49:31.443Z,25.10
2022-08-28T07:51:59.511Z,17.48
2022-08-28T07:54:27.792Z,25.48
2022-08-28T07:56:57.263Z,14.18
2022-08-28T07:59:25.518Z,21.08
2022-08-28T08:01:54.268Z,16.60
2022-08-28T08:04:24.389Z,21.42
2022-08-28T08:06:57.863Z,15.98
2022-08-28T08:09:27.263Z,15.88
2022-08-28T08:11:59.001Z,19.70
2022-08-28T08:14:27.145Z,19.60
2022-08-28T08:16:55.197Z,17.80
2022-08-28T08:19:23.362Z,13.85
2022-08-28T08:21:55.045Z,12.65
2022-08-28T08:24:26.562Z,20.27
2022-08-28T08:27:00.920Z,13.95
2022-08-28T08:29:31.927Z,23.70
2022-08-28T08:32:05.079Z,11.73
2022-08-28T08:34:34.875Z,21.88
2022-08-28T08:37:03.069Z,17.95
2022-08-28T08:39:31.842Z,16.00
2022-08-28T08:42:06.860Z,14.32
2022-08-28T08:44:37.955Z,13.75
2022-08-28T08:47:15.126Z,15.20
2022-08-28T08:49:49.964Z,20.77
2022-08-28T08:52:35.987Z,17.77
2022-08-28T08:55:31.581Z,12.88
2022-08-28T08:58:08.191Z,24.55
2022-08-28T09:00:41.386Z,17.25
2022-08-28T09:03:15.505Z,19.05
2022-08-28T09:05:53.385Z,19.58
2022-08-28T09:08:37.821Z,18.50
2022-08-28T09:11:18.192Z,22.38
2022-08-28T09:13:54.526Z,18.30
2022-08-28T09:16:31.257Z,16.20
2022-08-28T09:19:01.039Z,19.23
2022-08-28T09:21:32.236Z,15.73
2022-08-28T09:24:07.281Z,20.10
2022-08-28T09:26:45.190Z,16.98
2022-08-28T09:29:26.697Z,12.13
2022-08-28T09:31:55.282Z,15.65
2022-08-28T09:34:38.586Z,12.77
2022-08-28T09:37:09.674Z,14.15
2022-08-28T09:39:45.595Z,15.55
2022-08-28T09:42:40.135Z,15.88
2022-08-28T09:45:23.509Z,15.90
2022-08-28T09:47:53.439Z,16.13
2022-08-28T09:50:31.479Z,13.68
2022-08-28T09:53:15.691Z,18.00
2022-08-28T09:55:54.918Z,12.98
2022-08-28T09:58:24.345Z,12.00
2022-08-28T10:00:58.141Z,12.90
2022-08-28T10:03:31.799Z,17.73
2022-08-28T10:06:07.321Z,18.17
2022-08-28T10:08:50.929Z,15.40
2022-08-28T10:11:25.944Z,17.63
2022-08-28T10:14:06.791Z,9.95
2022-08-28T10:16:47.955Z,13.70
2022-08-28T10:19:29.078Z,11.43
2022-08-28T10:22:06.355Z,13.25
2022-08-28T10:24:49.015Z,10.95
2022-08-28T10:27:30.218Z,9.30
2022-08-28T10:30:12.416Z,16.45
2022-08-28T10:33:07.550Z,15.77
2022-08-28T10:35:45.289Z,12.98
2022-08-28T10:38:17.479Z,13.57
2022-08-28T10:40:54.503Z,10.50
2022-08-28T10:43:30.490Z,9.88
2022-08-28T10:46:02.117Z,13.30
2022-08-28T10:48:36.656Z,14.65
2022-08-28T10:51:11.874Z,9.52
2022-08-28T10:53:45.380Z,13.50
2022-08-28T10:56:18.468Z,9.27
2022-08-28T10:58:50.617Z,13.82
2022-08-28T11:01:27.259Z,13.93
2022-08-28T11:03:59.733Z,15.38
2022-08-28T11:06:33.413Z,10.55
2022-08-28T11:09:24.860Z,9.85
2022-08-28T11:12:01.076Z,15.68
2022-08-28T11:14:33.847Z,12.18
2022-08-28T11:17:06.498Z,13.30
2022-08-28T11:19:57.031Z,8.93
2022-08-28T11:22:28.086Z,15.57
2022-08-28T11:25:07.785Z,14.18
2022-08-28T11:27:39.263Z,8.88
2022-08-28T11:30:32.826Z,13.52
2022-08-28T11:33:10.627Z,14.35
2022-08-28T11:35:45.108Z,11.60
2022-08-28T11:38:17.346Z,16.08
2022-08-28T11:40:58.045Z,13.77
2022-08-28T11:43:35.939Z,13.75
2022-08-28T11:46:14.319Z,16.88
2022-08-28T11:48:50.833Z,20.80
2022-08-28T11:51:41.075Z,11.60
2022-08-28T11:54:23.966Z,13.90
2022-08-28T11:57:01.417Z,13.65
2022-08-28T11:59:59.839Z,20.10
2022-08-28T12:02:53.228Z,11.23
2022-08-28T12:05:49.773Z,16.00
2022-08-28T12:09:10.231Z,10.95
2022-08-28T12:12:00.611Z,11.35
2022-08-28T12:15:02.389Z,16.58
2022-08-28T12:17:51.750Z,13.85
2022-08-28T12:20:36.941Z,12.88
2022-08-28T12:23:22.501Z,13.23
2022-08-28T12:25:51.696Z,14.43
2022-08-28T12:28:27.340Z,11.70
2022-08-28T12:31:00.739Z,11.93
2022-08-28T12:33:36.740Z,16.50
2022-08-28T12:36:07.534Z,12.43
2022-08-28T12:38:36.366Z,9.98
2022-08-28T12:41:05.121Z,12.43
2022-08-28T12:43:41.718Z,11.95
2022-08-28T12:46:20.076Z,20.63
2022-08-28T12:48:53.114Z,12.88
2022-08-28T12:51:22.867Z,15.13
2022-08-28T12:53:53.241Z,13.77
2022-08-28T12:56:23.368Z,13.10
2022-08-28T12:58:52.933Z,16.20
2022-08-28T13:01:29.026Z,14.25
2022-08-28T13:04:00.264Z,13.00
2022-08-28T13:06:31.431Z,17.38
2022-08-28T13:09:02.525Z,21.35
2022-08-28T13:11:35.057Z,15.52
2022-08-28T13:14:05.487Z,11.43
2022-08-28T13:16:40.664Z,20.05
2022-08-28T13:19:29.385Z,11.20
2022-08-28T13:22:02.042Z,15.65
2022-08-28T13:24:43.589Z,13.55
2022-08-28T13:27:24.669Z,17.00
2022-08-28T13:30:01.573Z,14.68
2022-08-28T13:32:30.933Z,12.43
2022-08-28T13:35:16.885Z,13.50
2022-08-28T13:37:48.115Z,23.17
2022-08-28T13:40:45.909Z,13.57
2022-08-28T13:43:10.155Z,13.98
2022-08-28T13:45:43.947Z,15.20
2022-08-28T13:48:13.351Z,13.38
2022-08-28T13:50:47.184Z,13.10
2022-08-28T13:53:16.915Z,11.95
2022-08-28T13:55:45.063Z,15.80
2022-08-28T13:58:31.734Z,13.80
2022-08-28T14:01:01.758Z,12.02
2022-08-28T14:03:39.129Z,12.02
2022-08-28T14:06:11.534Z,19.65
2022-08-28T14:08:40.062Z,18.45
2022-08-28T14:11:08.375Z,18.50
2022-08-28T14:13:47.461Z,13.00
2022-08-28T14:16:26.396Z,23.08
2022-08-28T14:18:55.194Z,21.90
2022-08-28T14:21:24.538Z,12.65
2022-08-28T14:23:52.863Z,14.85
2022-08-28T14:26:21.155Z,13.10
2022-08-28T14:28:49.351Z,15.60
2022-08-28T14:31:17.828Z,13.35
2022-08-28T14:33:47.510Z,13.15
2022-08-28T14:36:17.555Z,13.02
2022-08-28T14:38:45.817Z,15.18
2022-08-28T14:41:14.915Z,15.90
2022-08-28T14:43:43.138Z,14.00
2022-08-28T14:46:16.380Z,13.70
2022-08-28T14:48:44.942Z,16.17
2022-08-28T14:51:17.623Z,19.30
2022-08-28T14:53:46.072Z,16.35
2022-08-28T14:56:16.507Z,11.27
2022-08-28T14:58:48.085Z,7.78
2022-08-28T15:01:23.769Z,14.35
2022-08-28T15:03:54.285Z,15.93
2022-08-28T15:06:24.317Z,12.07
2022-08-28T15:08:55.705Z,15.70
2022-08-28T15:11:26.091Z,15.43
2022-08-28T15:13:55.175Z,9.75
2022-08-28T15:16:29.901Z,15.13
2022-08-28T15:18:59.993Z,14.57
2022-08-28T15:21:33.213Z,13.13
2022-08-28T15:24:04.028Z,11.77
2022-08-28T15:26:32.763Z,9.02
2022-08-28T15:29:03.473Z,10.48
2022-08-28T15:31:33.271Z,10.23
2022-08-28T15:34:04.780Z,12.88
2022-08-28T15:36:43.879Z,10.50
2022-08-28T15:39:30.394Z,8.70
2022-08-28T15:41:59.285Z,10.98
2022-08-28T15:44:28.177Z,11.60
2022-08-28T15:46:58.301Z,10.00
2022-08-28T15:49:28.090Z,9.85
2022-08-28T15:51:58.727Z,9.55
2022-08-28T15:54:27.781Z,11.27
2022-08-28T15:56:55.916Z,9.93
2022-08-28T15:59:24.187Z,7.20
2022-08-28T16:02:12.549Z,10.85
2022-08-28T16:04:40.875Z,8.27
2022-08-28T16:07:11.176Z,10.93
2022-08-28T16:09:39.239Z,9.38
2022-08-28T16:12:07.572Z,9.85
2022-08-28T16:14:36.276Z,10.48
2022-08-28T16:17:11.127Z,9.52
2022-08-28T16:19:40.198Z,8.95
2022-08-28T16:22:09.984Z,9.63
2022-08-28T16:24:38.442Z,9.18
2022-08-28T16:27:09.647Z,10.23
2022-08-28T16:29:40.895Z,8.10
2022-08-28T16:32:09.005Z,10.65
2022-08-28T16:34:40.041Z,9.23
2022-08-28T16:37:08.654Z,7.90
2022-08-28T16:39:51.589Z,11.23
2022-08-28T16:42:30.892Z,10.55
2022-08-28T16:45:01.415Z,10.07
2022-08-28T16:47:31.520Z,7.18
2022-08-28T16:50:00.500Z,7.82
2022-08-28T16:52:28.878Z,13.57
2022-08-28T16:54:59.647Z,13.02
2022-08-28T16:57:28.025Z,10.30
2022-08-28T16:59:56.884Z,12.32
2022-08-28T17:02:26.690Z,13.48
2022-08-28T17:04:58.184Z,9.95
2022-08-28T17:07:26.300Z,10.68
2022-08-28T17:09:54.337Z,10.13
2022-08-28T17:12:26.518Z,10.38
2022-08-28T17:14:56.450Z,12.43
2022-08-28T17:17:25.264Z,15.90
2022-08-28T17:19:53.422Z,11.95
2022-08-28T17:22:32.659Z,19.15
2022-08-28T17:25:03.073Z,12.68
2022-08-28T17:27:33.101Z,10.93
2022-08-28T17:30:05.095Z,15.70
2022-08-28T17:32:33.487Z,11.38
2022-08-28T17:35:01.923Z,11.00
2022-08-28T17:37:31.746Z,8.88
2022-08-28T17:39:59.954Z,12.18
2022-08-28T17:42:28.143Z,8.52
2022-08-28T17:44:57.539Z,15.48
2022-08-28T17:47:30.652Z,6.72
2022-08-28T17:49:59.916Z,7.32
2022-08-28T17:52:28.222Z,10.10
2022-08-28T17:54:56.919Z,9.65
2022-08-28T17:57:25.361Z,13.50
2022-08-28T17:59:54.075Z,7.32
2022-08-28T18:02:23.486Z,9.20
2022-08-28T18:04:51.632Z,12.13
2022-08-28T18:07:19.750Z,9.77
2022-08-28T18:09:51.691Z,12.38
2022-08-28T18:12:19.815Z,9.73
2022-08-28T18:14:47.977Z,8.63
2022-08-28T18:17:19.223Z,14.43
2022-08-28T18:19:48.845Z,13.30
2022-08-28T18:22:16.858Z,8.90
2022-08-28T18:24:45.080Z,10.73
2022-08-28T18:27:31.744Z,10.73
2022-08-28T18:30:00.000Z,6.97
2022-08-28T18:32:28.072Z,7.43
2022-08-28T18:34:57.790Z,5.93
2022-08-28T18:37:26.393Z,7.30
2022-08-28T18:39:54.791Z,5.75
2022-08-28T18:42:27.649Z,8.85
2022-08-28T18:44:56.922Z,5.72
2022-08-28T18:47:25.043Z,8.82
2022-08-28T18:49:53.534Z,7.45
2022-08-28T18:52:22.927Z,7.57
2022-08-28T18:54:54.078Z,7.35
2022-08-28T18:57:31.851Z,8.25
2022-08-28T19:00:00.641Z,8.20
2022-08-28T19:02:29.192Z,5.60
2022-08-28T19:04:57.643Z,5.10
2022-08-28T19:07:27.699Z,9.13
2022-08-28T19:09:57.193Z,7.28
2022-08-28T19:12:28.350Z,7.35
2022-08-28T19:14:57.742Z,6.90
2022-08-28T19:17:27.095Z,5.63
2022-08-28T19:19:55.509Z,6.28
2022-08-28T19:22:24.195Z,8.05
2022-08-28T19:24:55.651Z,3.80
2022-08-28T19:27:26.273Z,6.03
2022-08-28T19:29:55.296Z,6.13
2022-08-28T19:32:27.073Z,5.30
2022-08-28T19:34:57.277Z,4.20
2022-08-28T19:37:25.895Z,2.90
2022-08-28T19:40:07.060Z,8.25
2022-08-28T19:42:36.133Z,6.78
2022-08-28T19:45:05.179Z,4.03
2022-08-28T19:47:35.536Z,5.68
2022-08-28T19:50:05.165Z,7.45
2022-08-28T19:52:34.732Z,5.43
2022-08-28T19:55:06.016Z,7.47
2022-08-28T19:57:34.684Z,5.72
2022-08-28T20:00:03.701Z,3.88
2022-08-28T20:02:32.548Z,5.97
2022-08-28T20:05:00.625Z,4.50
2022-08-28T20:07:28.875Z,6.97
2022-08-28T20:09:56.956Z,5.18
2022-08-28T20:12:26.446Z,5.50
2022-08-28T20:14:59.038Z,4.30
2022-08-28T20:17:31.106Z,4.00
2022-08-28T20:20:03.054Z,3.85
2022-08-28T20:22:32.269Z,6.35
2022-08-28T20:25:01.229Z,5.53
2022-08-28T20:27:31.196Z,5.30
2022-08-28T20:30:00.624Z,3.05
2022-08-28T20:32:40.870Z,4.63
2022-08-28T20:35:11.546Z,16.08
2022-08-28T20:37:45.042Z,6.57
2022-08-28T20:40:16.578Z,3.85
2022-08-28T20:42:46.760Z,5.85
2022-08-28T20:45:16.164Z,3.53
2022-08-28T20:47:44.413Z,4.45
2022-08-28T20:50:13.894Z,8.00
2022-08-28T20:52:42.036Z,5.57
2022-08-28T20:55:13.135Z,5.88
2022-08-28T20:57:41.722Z,5.70
2022-08-28T21:00:12.916Z,6.40
2022-08-28T21:02:41.580Z,5.45
2022-08-28T21:05:10.147Z,6.00
2022-08-28T21:07:38.306Z,6.28
2022-08-28T21:10:08.163Z,7.75
2022-08-28T21:12:36.784Z,8.10
2022-08-28T21:15:05.516Z,5.05
2022-08-28T21:17:35.099Z,7.55
2022-08-28T21:20:06.144Z,5.47
2022-08-28T21:22:36.055Z,4.38
2022-08-28T21:25:06.391Z,5.85
2022-08-28T21:27:34.890Z,4.75
2022-08-28T21:30:03.300Z,5.20
2022-08-28T21:32:32.737Z,4.05
2022-08-28T21:35:02.463Z,5.55
2022-08-28T21:37:31.255Z,4.78
2022-08-28T21:39:59.608Z,6.53
2022-08-28T21:42:28.270Z,5.78
2022-08-28T21:44:56.567Z,5.65
2022-08-28T21:47:25.937Z,4.70
2022-08-28T21:49:56.125Z,6.30
2022-08-28T21:52:27.410Z,4.68
2022-08-28T21:54:58.554Z,5.00
2022-08-28T21:57:27.776Z,5.28
2022-08-28T21:59:56.067Z,7.07
2022-08-28T22:02:24.499Z,4.13
2022-08-28T22:04:53.863Z,4.45
2022-08-28T22:07:22.207Z,7.72
2022-08-28T22:09:51.940Z,6.82
2022-08-28T22:12:20.252Z,6.03
2022-08-28T22:14:48.275Z,5.00
2022-08-28T22:17:16.463Z,5.90
2022-08-28T22:19:46.837Z,5.60
2022-08-28T22:22:33.123Z,5.50
2022-08-28T22:25:02.783Z,5.10
2022-08-28T22:27:31.941Z,4.55
2022-08-28T22:30:00.223Z,4.97
2022-08-28T22:32:28.286Z,7.43
2022-08-28T22:34:56.388Z,6.22
2022-08-28T22:37:25.913Z,8.60
2022-08-28T22:39:54.226Z,6.22
2022-08-28T22:42:23.686Z,6.82
2022-08-28T22:44:51.914Z,5.85
2022-08-28T22:47:20.199Z,5.68
2022-08-28T22:49:48.667Z,5.93
2022-08-28T22:52:16.895Z,8.07
2022-08-28T22:54:45.005Z,5.13
2022-08-28T22:57:12.982Z,7.45
2022-08-28T22:59:42.586Z,10.55
2022-08-28T23:02:12.183Z,8.27
2022-08-28T23:04:40.794Z,11.00
2022-08-28T23:07:08.968Z,8.32
2022-08-28T23:09:37.331Z,7.75
2022-08-28T23:12:08.438Z,11.57
2022-08-28T23:14:36.638Z,6.88
2022-08-28T23:17:06.034Z,6.18
2022-08-28T23:19:34.684Z,8.85
2022-08-28T23:22:02.714Z,9.02
2022-08-28T23:24:31.458Z,8.18
2022-08-28T23:27:13.981Z,9.95
2022-08-28T23:29:47.787Z,13.38
2022-08-28T23:32:23.078Z,11.70
2022-08-28T23:34:51.910Z,10.68
2022-08-28T23:37:20.112Z,11.55
2022-08-28T23:39:48.144Z,10.20
2022-08-28T23:42:16.237Z,11.00
2022-08-28T23:44:44.436Z,13.55
2022-08-28T23:47:13.891Z,14.38
2022-08-28T23:49:43.362Z,15.23
2022-08-28T23:52:12.261Z,15.68
2022-08-28T23:54:40.371Z,14.77
2022-08-28T23:57:10.994Z,14.57
2022-08-28T23:59:39.238Z,16.17
